createdAt,value
2016-04-02T00:00:12.220Z,0
2016-04-02T00:00:58.614Z,0
2016-04-02T00:01:58.726Z,0
2016-04-02T00:02:58.572Z,0
2016-04-02T00:03:58.607Z,0
2016-04-02T00:04:58.999Z,0
2016-04-02T00:05:58.455Z,0
2016-04-02T00:07:58.398Z,0
2016-04-02T00:08:59.792Z,0
2016-04-02T00:09:58.528Z,0
2016-04-02T00:10:59.923Z,0
2016-04-02T00:11:59.143Z,0
2016-04-02T00:12:58.256Z,0
2016-04-02T00:13:58.227Z,0
2016-04-02T00:14:58.354Z,0
2016-04-02T00:15:58.514Z,0
2016-04-02T00:16:58.673Z,0
2016-04-02T00:17:58.394Z,0
2016-04-02T00:18:58.787Z,0
2016-04-02T00:19:59.352Z,0
2016-04-02T00:20:58.215Z,0
2016-04-02T00:21:58.405Z,0
2016-04-02T00:22:58.330Z,0
2016-04-02T00:23:57.973Z,0
2016-04-02T00:24:58.131Z,0
2016-04-02T00:25:57.884Z,0
2016-04-02T00:26:57.841Z,0
2016-04-02T00:27:57.953Z,0
2016-04-02T00:28:58.205Z,0
2016-04-02T00:29:58.082Z,0
2016-04-02T00:30:57.804Z,0
2016-04-02T00:31:57.760Z,0
2016-04-02T00:32:57.762Z,0
2016-04-02T00:33:57.577Z,0
2016-04-02T00:34:58.018Z,0
2016-04-02T00:35:57.604Z,0
2016-04-02T00:36:57.715Z,0
2016-04-02T00:37:57.578Z,0
2016-04-02T00:38:57.565Z,0
2016-04-02T00:39:57.489Z,0
2016-04-02T00:40:57.821Z,0
2016-04-02T00:41:57.760Z,0
2016-04-02T00:42:57.481Z,0
2016-04-02T00:43:57.501Z,0
2016-04-02T00:44:57.472Z,0
2016-04-02T00:45:57.412Z,0
2016-04-02T00:46:57.680Z,0
2016-04-02T00:47:57.401Z,0
2016-04-02T00:48:57.186Z,0
2016-04-02T00:49:57.360Z,0
2016-04-02T00:50:57.284Z,0
2016-04-02T00:51:57.225Z,0
2016-04-02T00:52:57.493Z,0
2016-04-02T00:53:57.214Z,0
2016-04-02T00:54:57.155Z,0
2016-04-02T00:55:57.219Z,0
2016-04-02T00:56:57.050Z,0
2016-04-02T00:57:57.037Z,0
2016-04-02T00:58:57.338Z,0
2016-04-02T01:00:10.965Z,0
2016-04-02T01:00:57.030Z,0
2016-04-02T01:01:56.971Z,0
2016-04-02T01:02:56.941Z,0
2016-04-02T01:03:56.976Z,0
2016-04-02T01:04:57.572Z,0
2016-04-02T01:05:56.904Z,0
2016-04-02T01:06:56.874Z,0
2016-04-02T01:07:56.861Z,0
2016-04-02T01:08:56.818Z,0
2016-04-02T01:09:56.758Z,0
2016-04-02T01:10:57.057Z,0
2016-04-02T01:11:56.873Z,0
2016-04-02T01:12:56.750Z,0
2016-04-02T01:13:56.628Z,0
2016-04-02T01:14:56.989Z,0
2016-04-02T01:15:56.681Z,0
2016-04-02T01:16:56.979Z,0
2016-04-02T01:17:56.622Z,0
2016-04-02T01:18:56.734Z,0
2016-04-02T01:19:56.597Z,0
2016-04-02T01:20:56.490Z,0
2016-04-02T01:21:56.572Z,0
2016-04-02T01:22:57.059Z,0
2016-04-02T01:23:56.514Z,0
2016-04-02T01:24:57.688Z,0
2016-04-02T01:25:57.472Z,0
2016-04-02T01:26:56.475Z,0
2016-04-02T01:27:56.588Z,0
2016-04-02T01:28:57.247Z,0
2016-04-02T01:29:56.296Z,0
2016-04-02T01:30:56.689Z,0
2016-04-02T01:31:56.536Z,0
2016-04-02T01:32:56.460Z,0
2016-04-02T01:33:56.729Z,0
2016-04-02T01:34:56.763Z,0
2016-04-02T01:35:58.499Z,0
2016-04-02T01:36:56.830Z,0
2016-04-02T01:37:56.615Z,0
2016-04-02T01:38:56.710Z,0
2016-04-02T01:39:56.526Z,0
2016-04-02T01:40:56.638Z,0
2016-04-02T01:41:56.203Z,0
2016-04-02T01:42:55.924Z,0
2016-04-02T01:43:55.896Z,0
2016-04-02T01:44:57.101Z,0
2016-04-02T01:45:55.929Z,0
2016-04-02T01:46:56.342Z,0
2016-04-02T01:47:56.594Z,0
2016-04-02T01:48:56.156Z,0
2016-04-02T01:49:56.112Z,0
2016-04-02T01:50:55.942Z,0
2016-04-02T01:51:55.836Z,0
2016-04-02T01:52:54.808Z,0
2016-04-02T01:53:56.186Z,0
2016-04-02T01:54:55.657Z,0
2016-04-02T01:55:55.597Z,0
2016-04-02T01:56:55.890Z,0
2016-04-02T01:57:55.584Z,0
2016-04-02T01:58:56.028Z,0
2016-04-02T01:59:56.410Z,0
2016-04-02T02:00:55.760Z,0
2016-04-02T02:01:55.819Z,0
2016-04-02T02:02:55.567Z,0
2016-04-02T02:03:55.550Z,0
2016-04-02T02:04:55.939Z,0
2016-04-02T02:05:55.625Z,0
2016-04-02T02:06:56.141Z,0
2016-04-02T02:07:55.470Z,0
2016-04-02T02:08:55.778Z,0
2016-04-02T02:09:55.497Z,0
2016-04-02T02:10:55.764Z,0
2016-04-02T02:11:55.188Z,0
2016-04-02T02:12:55.363Z,0
2016-04-02T02:13:55.224Z,0
2016-04-02T02:14:55.531Z,0
2016-04-02T02:15:56.081Z,0
2016-04-02T02:16:55.615Z,0
2016-04-02T02:17:55.476Z,0
2016-04-02T02:18:55.244Z,0
2016-04-02T02:19:55.590Z,0
2016-04-02T02:20:55.060Z,0
2016-04-02T02:21:54.845Z,0
2016-04-02T02:22:55.440Z,0
2016-04-02T02:23:55.178Z,0
2016-04-02T02:24:54.962Z,0
2016-04-02T02:25:54.933Z,0
2016-04-02T02:26:55.014Z,0
2016-04-02T02:27:54.830Z,0
2016-04-02T02:28:55.067Z,0
2016-04-02T02:29:54.835Z,0
2016-04-02T02:30:55.041Z,0
2016-04-02T02:31:54.590Z,0
2016-04-02T02:32:54.656Z,0
2016-04-02T02:33:54.784Z,0
2016-04-02T02:34:54.849Z,0
2016-04-02T02:35:55.023Z,0
2016-04-02T02:36:54.589Z,0
2016-04-02T02:37:55.248Z,0
2016-04-02T02:38:54.797Z,0
2016-04-02T02:39:54.472Z,0
2016-04-02T02:40:55.224Z,0
2016-04-02T02:41:54.572Z,0
2016-04-02T02:42:54.542Z,0
2016-04-02T02:43:54.405Z,0
2016-04-02T02:44:54.658Z,0
2016-04-02T02:45:54.847Z,0
2016-04-02T02:46:54.522Z,0
2016-04-02T02:47:54.181Z,0
2016-04-02T02:48:53.621Z,0
2016-04-02T02:49:54.327Z,0
2016-04-02T02:50:54.516Z,0
2016-04-02T02:51:55.269Z,0
2016-04-02T02:52:54.460Z,0
2016-04-02T02:53:54.134Z,0
2016-04-02T02:54:54.684Z,0
2016-04-02T02:55:53.905Z,0
2016-04-02T02:56:54.002Z,0
2016-04-02T02:57:54.880Z,0
2016-04-02T02:58:54.867Z,0
2016-04-02T02:59:54.151Z,0
2016-04-02T03:00:53.872Z,0
2016-04-02T03:01:54.109Z,0
2016-04-02T03:02:54.221Z,0
2016-04-02T03:03:53.801Z,0
2016-04-02T03:04:54.368Z,0
2016-04-02T03:05:53.792Z,0
2016-04-02T03:06:53.685Z,0
2016-04-02T03:07:53.767Z,0
2016-04-02T03:08:53.770Z,0
2016-04-02T03:09:53.709Z,0
2016-04-02T03:10:53.946Z,0
2016-04-02T03:11:53.823Z,0
2016-04-02T03:12:53.717Z,0
2016-04-02T03:13:53.533Z,0
2016-04-02T03:14:53.488Z,0
2016-04-02T03:15:53.600Z,0
2016-04-02T03:16:53.915Z,0
2016-04-02T03:17:54.199Z,0
2016-04-02T03:18:53.499Z,0
2016-04-02T03:19:54.174Z,0
2016-04-02T03:20:53.583Z,0
2016-04-02T03:21:53.382Z,0
2016-04-02T03:22:53.978Z,0
2016-04-02T03:23:53.730Z,0
2016-04-02T03:24:53.374Z,0
2016-04-02T03:25:53.549Z,0
2016-04-02T03:26:53.207Z,0
2016-04-02T03:27:53.179Z,0
2016-04-02T03:28:54.854Z,0
2016-04-02T03:29:53.388Z,0
2016-04-02T03:30:53.407Z,0
2016-04-02T03:31:53.143Z,0
2016-04-02T03:32:53.365Z,0
2016-04-02T03:33:53.179Z,0
2016-04-02T03:34:53.573Z,0
2016-04-02T03:35:52.935Z,0
2016-04-02T03:36:52.923Z,0
2016-04-02T03:37:52.847Z,0
2016-04-02T03:38:52.990Z,0
2016-04-02T03:39:53.102Z,0
2016-04-02T03:40:53.636Z,0
2016-04-02T03:41:53.311Z,0
2016-04-02T03:42:53.001Z,0
2016-04-02T03:43:52.895Z,0
2016-04-02T03:44:52.834Z,0
2016-04-02T03:45:53.275Z,0
2016-04-02T03:46:52.950Z,0
2016-04-02T03:47:52.905Z,0
2016-04-02T03:48:53.095Z,0
2016-04-02T03:49:52.691Z,0
2016-04-02T03:50:52.538Z,0
2016-04-02T03:51:52.899Z,0
2016-04-02T03:52:52.933Z,0
2016-04-02T03:53:52.561Z,0
2016-04-02T03:54:52.688Z,0
2016-04-02T03:55:52.488Z,0
2016-04-02T03:56:52.460Z,0
2016-04-02T03:57:52.932Z,0
2016-04-02T03:58:52.841Z,0
2016-04-02T03:59:52.296Z,0
2016-04-02T04:00:52.237Z,0
2016-04-02T04:01:52.957Z,0
2016-04-02T04:02:52.648Z,0
2016-04-02T04:03:52.745Z,0
2016-04-02T04:04:53.154Z,0
2016-04-02T04:05:52.219Z,0
2016-04-02T04:06:52.113Z,0
2016-04-02T04:07:52.537Z,0
2016-04-02T04:08:52.196Z,0
2016-04-02T04:09:52.027Z,0
2016-04-02T04:10:52.561Z,0
2016-04-02T04:11:52.126Z,0
2016-04-02T04:12:53.128Z,0
2016-04-02T04:13:52.444Z,0
2016-04-02T04:14:52.134Z,0
2016-04-02T04:15:51.402Z,0
2016-04-02T04:16:53.045Z,0
2016-04-02T04:17:52.375Z,0
2016-04-02T04:18:52.191Z,0
2016-04-02T04:19:52.288Z,0
2016-04-02T04:20:52.150Z,0
2016-04-02T04:21:52.044Z,0
2016-04-02T04:22:52.452Z,0
2016-04-02T04:23:52.236Z,0
2016-04-02T04:24:51.849Z,0
2016-04-02T04:25:51.616Z,0
2016-04-02T04:26:53.104Z,0
2016-04-02T04:27:52.137Z,0
2016-04-02T04:28:51.734Z,0
2016-04-02T04:29:52.220Z,0
2016-04-02T04:30:51.520Z,0
2016-04-02T04:31:51.460Z,0
2016-04-02T04:32:51.495Z,0
2016-04-02T04:33:51.543Z,0
2016-04-02T04:34:51.813Z,0
2016-04-02T04:35:51.768Z,0
2016-04-02T04:36:51.693Z,0
2016-04-02T04:37:51.368Z,4
2016-04-02T04:38:51.276Z,0
2016-04-02T04:39:51.279Z,0
2016-04-02T04:40:51.312Z,4
2016-04-02T04:41:51.722Z,0
2016-04-02T04:42:51.350Z,4
2016-04-02T04:43:51.243Z,4
2016-04-02T04:44:51.481Z,4
2016-04-02T04:45:51.733Z,8
2016-04-02T04:46:51.079Z,4
2016-04-02T04:47:51.661Z,12
2016-04-02T04:48:51.647Z,12
2016-04-02T04:49:51.369Z,12
2016-04-02T04:50:51.183Z,12
2016-04-02T04:51:51.749Z,16
2016-04-02T04:52:52.330Z,20
2016-04-02T04:53:52.222Z,20
2016-04-02T04:54:51.429Z,24
2016-04-02T04:55:51.275Z,28
2016-04-02T04:56:51.152Z,32
2016-04-02T04:57:51.375Z,36
2016-04-02T04:58:51.283Z,40
2016-04-02T04:59:51.146Z,48
2016-04-02T05:01:50.885Z,60
2016-04-02T05:02:50.638Z,64
2016-04-02T05:03:50.859Z,76
2016-04-02T05:04:50.690Z,80
2016-04-02T05:05:50.880Z,92
2016-04-02T05:06:50.539Z,104
2016-04-02T05:07:50.510Z,112
2016-04-02T05:08:50.528Z,124
2016-04-02T05:09:50.453Z,140
2016-04-02T05:10:50.440Z,152
2016-04-02T05:11:50.692Z,164
2016-04-02T05:12:50.384Z,176
2016-04-02T05:13:50.308Z,192
2016-04-02T05:14:50.295Z,204
2016-04-02T05:15:50.298Z,224
2016-04-02T05:16:50.284Z,236
2016-04-02T05:17:50.694Z,252
2016-04-02T05:18:50.243Z,268
2016-04-02T05:19:50.292Z,288
2016-04-02T05:20:50.170Z,300
2016-04-02T05:21:50.142Z,320
2016-04-02T05:22:50.208Z,336
2016-04-02T05:23:50.398Z,356
2016-04-02T05:24:50.041Z,372
2016-04-02T05:25:50.028Z,388
2016-04-02T05:26:50.202Z,404
2016-04-02T05:27:49.955Z,424
2016-04-02T05:28:49.974Z,440
2016-04-02T05:29:50.241Z,452
2016-04-02T05:30:49.979Z,468
2016-04-02T05:31:49.871Z,488
2016-04-02T05:32:49.859Z,508
2016-04-02T05:33:50.268Z,524
2016-04-02T05:34:49.832Z,540
2016-04-02T05:35:50.070Z,552
2016-04-02T05:36:49.713Z,560
2016-04-02T05:37:49.763Z,576
2016-04-02T05:38:49.688Z,604
2016-04-02T05:39:49.737Z,632
2016-04-02T05:40:49.646Z,648
2016-04-02T05:41:49.930Z,664
2016-04-02T05:42:49.620Z,664
2016-04-02T05:43:49.576Z,680
2016-04-02T05:44:49.578Z,716
2016-04-02T05:45:49.612Z,732
2016-04-02T05:46:49.536Z,748
2016-04-02T05:47:49.774Z,768
2016-04-02T05:48:49.495Z,780
2016-04-02T05:49:49.389Z,796
2016-04-02T05:50:49.423Z,812
2016-04-02T05:51:49.364Z,828
2016-04-02T05:52:49.335Z,840
2016-04-02T05:53:49.603Z,860
2016-04-02T05:54:49.341Z,872
2016-04-02T05:55:49.264Z,888
2016-04-02T05:56:49.252Z,904
2016-04-02T05:57:49.269Z,920
2016-04-02T05:58:49.194Z,932
2016-04-02T05:59:49.432Z,948
2016-04-02T06:00:49.200Z,964
2016-04-02T06:01:49.141Z,972
2016-04-02T06:02:49.143Z,984
2016-04-02T06:03:49.068Z,984
2016-04-02T06:04:48.977Z,992
2016-04-02T06:05:49.432Z,908
2016-04-02T06:06:49.138Z,1036
2016-04-02T06:07:48.906Z,1088
2016-04-02T06:08:48.956Z,1104
2016-04-02T06:09:48.927Z,1124
2016-04-02T06:10:48.914Z,1136
2016-04-02T06:11:49.229Z,1164
2016-04-02T06:12:47.950Z,1104
2016-04-02T06:13:48.812Z,1052
2016-04-02T06:14:48.894Z,984
2016-04-02T06:15:49.100Z,960
2016-04-02T06:16:48.696Z,976
2016-04-02T06:17:48.949Z,948
2016-04-02T06:18:48.623Z,988
2016-04-02T06:19:48.611Z,1040
2016-04-02T06:20:48.535Z,1012
2016-04-02T06:21:48.584Z,1028
2016-04-02T06:22:48.541Z,1008
2016-04-02T06:23:48.902Z,1012
2016-04-02T06:24:48.483Z,1028
2016-04-02T06:25:48.454Z,1048
2016-04-02T06:26:48.410Z,1076
2016-04-02T06:27:48.413Z,1196
2016-04-02T06:28:48.337Z,1124
2016-04-02T06:29:48.699Z,1104
2016-04-02T06:30:48.296Z,1160
2016-04-02T06:31:48.298Z,1168
2016-04-02T06:32:48.239Z,1104
2016-04-02T06:33:48.226Z,1096
2016-04-02T06:34:48.385Z,1164
2016-04-02T06:35:48.481Z,1204
2016-04-02T06:36:48.187Z,1164
2016-04-02T06:37:48.159Z,1112
2016-04-02T06:38:48.084Z,1088
2016-04-02T06:39:48.133Z,1120
2016-04-02T06:40:48.121Z,1140
2016-04-02T06:41:48.357Z,1068
2016-04-02T06:42:48.001Z,1068
2016-04-02T06:43:48.004Z,1072
2016-04-02T06:44:51.021Z,1116
2016-04-02T06:45:47.931Z,1196
2016-04-02T06:46:47.995Z,1144
2016-04-02T06:47:48.170Z,1112
2016-04-02T06:48:47.845Z,1116
2016-04-02T06:49:47.800Z,1232
2016-04-02T06:50:47.787Z,1312
2016-04-02T06:51:47.805Z,1420
2016-04-02T06:52:47.792Z,1404
2016-04-02T06:53:48.405Z,1676
2016-04-02T06:54:47.798Z,1520
2016-04-02T06:55:47.770Z,1528
2016-04-02T06:57:01.600Z,1660
2016-04-02T06:57:47.666Z,1676
2016-04-02T06:58:47.637Z,1696
2016-04-02T06:59:47.921Z,1716
2016-04-02T07:00:47.705Z,1732
2016-04-02T07:01:47.566Z,1744
2016-04-02T07:02:47.694Z,1740
2016-04-02T07:03:47.478Z,1784
2016-04-02T07:04:47.715Z,1836
2016-04-02T07:05:47.749Z,1888
2016-04-02T07:06:47.424Z,1940
2016-04-02T07:07:47.457Z,1968
2016-04-02T07:08:47.805Z,1936
2016-04-02T07:09:47.307Z,1880
2016-04-02T07:10:47.326Z,1800
2016-04-02T07:11:47.626Z,1800
2016-04-02T07:12:47.284Z,1824
2016-04-02T07:13:47.193Z,1828
2016-04-02T07:14:47.212Z,1836
2016-04-02T07:15:47.167Z,1832
2016-04-02T07:16:47.920Z,1840
2016-04-02T07:17:47.564Z,1852
2016-04-02T07:18:47.206Z,1852
2016-04-02T07:19:47.084Z,1856
2016-04-02T07:20:47.103Z,1868
2016-04-02T07:21:47.464Z,1872
2016-04-02T07:22:46.998Z,1880
2016-04-02T07:23:47.267Z,1880
2016-04-02T07:24:47.097Z,1896
2016-04-02T07:25:46.913Z,1916
2016-04-02T07:26:47.212Z,1932
2016-04-02T07:27:47.230Z,1932
2016-04-02T07:28:46.843Z,1936
2016-04-02T07:29:47.111Z,1936
2016-04-02T07:30:46.770Z,1928
2016-04-02T07:31:46.772Z,1936
2016-04-02T07:32:46.932Z,1956
2016-04-02T07:33:46.684Z,1964
2016-04-02T07:35:00.499Z,1972
2016-04-02T07:35:46.908Z,1976
2016-04-02T07:36:46.927Z,1996
2016-04-02T07:37:46.601Z,1984
2016-04-02T07:38:46.620Z,1980
2016-04-02T07:39:46.590Z,1984
2016-04-02T07:40:46.546Z,1992
2016-04-02T07:41:46.987Z,1992
2016-04-02T07:42:46.584Z,1996
2016-04-02T07:43:46.509Z,1996
2016-04-02T07:44:46.526Z,2008
2016-04-02T07:45:46.467Z,2024
2016-04-02T07:46:46.437Z,2044
2016-04-02T07:47:46.769Z,2040
2016-04-02T07:48:46.350Z,2048
2016-04-02T07:49:46.289Z,2060
2016-04-02T07:50:46.340Z,2080
2016-04-02T07:51:46.326Z,2100
2016-04-02T07:53:46.598Z,2088
2016-04-02T07:54:46.663Z,2096
2016-04-02T07:55:46.166Z,2088
2016-04-02T07:56:46.199Z,2104
2016-04-02T07:57:46.124Z,2112
2016-04-02T07:58:46.141Z,2112
2016-04-02T07:59:46.394Z,2104
2016-04-02T08:00:46.038Z,2088
2016-04-02T08:01:46.338Z,2096
2016-04-02T08:02:46.325Z,2092
2016-04-02T08:03:46.031Z,2104
2016-04-02T08:04:46.299Z,2108
2016-04-02T08:05:46.318Z,2120
2016-04-02T08:06:46.163Z,2120
2016-04-02T08:07:45.869Z,2120
2016-04-02T08:08:45.840Z,2132
2016-04-02T08:09:45.953Z,2144
2016-04-02T08:10:45.987Z,2152
2016-04-02T08:11:46.223Z,2160
2016-04-02T08:12:45.742Z,2168
2016-04-02T08:13:45.682Z,2176
2016-04-02T08:14:45.732Z,2180
2016-04-02T08:15:45.766Z,2184
2016-04-02T08:16:44.831Z,2188
2016-04-02T08:17:45.975Z,2188
2016-04-02T08:18:46.211Z,2188
2016-04-02T08:19:45.558Z,2196
2016-04-02T08:20:45.576Z,2200
2016-04-02T08:21:45.579Z,2204
2016-04-02T08:23:16.848Z,2220
2016-04-02T08:23:46.319Z,2216
2016-04-02T08:24:45.603Z,2224
2016-04-02T08:25:45.449Z,2228
2016-04-02T08:26:45.545Z,2228
2016-04-02T08:27:45.360Z,2228
2016-04-02T08:28:45.660Z,2228
2016-04-02T08:29:45.350Z,2232
2016-04-02T08:30:45.510Z,2232
2016-04-02T08:31:45.466Z,2228
2016-04-02T08:32:45.280Z,2224
2016-04-02T08:33:45.252Z,2224
2016-04-02T08:34:45.488Z,2228
2016-04-02T08:35:45.179Z,2228
2016-04-02T08:36:45.243Z,2228
2016-04-02T08:37:45.074Z,2228
2016-04-02T08:38:45.171Z,2224
2016-04-02T08:39:45.034Z,2232
2016-04-02T08:40:45.254Z,2232
2016-04-02T08:41:44.977Z,2232
2016-04-02T08:42:45.042Z,2236
2016-04-02T08:43:44.951Z,2236
2016-04-02T08:44:44.968Z,2240
2016-04-02T08:45:44.268Z,2236
2016-04-02T08:46:45.209Z,2244
2016-04-02T08:47:44.899Z,2248
2016-04-02T08:48:45.683Z,2244
2016-04-02T08:49:46.139Z,2236
2016-04-02T08:50:44.813Z,2240
2016-04-02T08:51:44.800Z,2236
2016-04-02T08:52:44.772Z,2240
2016-04-02T08:53:59.180Z,2236
2016-04-02T08:54:59.042Z,2236
2016-04-02T08:55:58.561Z,2232
2016-04-02T08:57:54.833Z,2228
2016-04-02T08:58:44.631Z,2240
2016-04-02T08:59:44.650Z,2236
2016-04-02T09:00:44.574Z,2244
2016-04-02T09:01:44.639Z,2256
2016-04-02T09:02:58.360Z,2260
2016-04-02T09:03:44.833Z,2260
2016-04-02T09:04:44.507Z,2264
2016-04-02T09:05:44.713Z,2268
2016-04-02T09:06:44.402Z,2272
2016-04-02T09:07:44.390Z,2276
2016-04-02T09:08:44.361Z,2280
2016-04-02T09:09:44.848Z,2272
2016-04-02T09:10:44.367Z,2272
2016-04-02T09:11:44.291Z,2280
2016-04-02T09:12:44.357Z,2284
2016-04-02T09:13:44.281Z,2288
2016-04-02T09:14:44.253Z,2300
2016-04-02T09:15:44.631Z,2296
2016-04-02T09:16:44.243Z,2296
2016-04-02T09:17:44.199Z,2312
2016-04-02T09:18:44.248Z,2320
2016-04-02T09:19:44.079Z,2332
2016-04-02T09:20:44.175Z,2340
2016-04-02T09:21:44.350Z,2344
2016-04-02T09:22:44.086Z,2348
2016-04-02T09:23:44.089Z,2344
2016-04-02T09:24:44.045Z,2344
2016-04-02T09:25:43.954Z,2352
2016-04-02T09:26:44.036Z,2360
2016-04-02T09:27:44.241Z,2368
2016-04-02T09:28:43.947Z,2372
2016-04-02T09:29:43.839Z,2376
2016-04-02T09:30:43.967Z,2376
2016-04-02T09:31:43.798Z,2380
2016-04-02T09:32:43.816Z,2384
2016-04-02T09:33:44.147Z,2400
2016-04-02T09:34:43.916Z,2408
2016-04-02T09:35:57.591Z,2416
2016-04-02T09:36:43.733Z,2420
2016-04-02T09:37:43.861Z,2416
2016-04-02T09:38:43.660Z,2416
2016-04-02T09:39:44.008Z,2416
2016-04-02T09:40:43.651Z,2424
2016-04-02T09:41:43.607Z,2424
2016-04-02T09:42:43.546Z,2432
2016-04-02T09:43:43.549Z,2440
2016-04-02T09:44:43.521Z,2444
2016-04-02T09:45:43.789Z,2444
2016-04-02T09:46:44.354Z,2452
2016-04-02T09:47:43.481Z,2448
2016-04-02T09:48:43.595Z,2464
2016-04-02T09:49:43.081Z,2464
2016-04-02T09:50:43.428Z,2468
2016-04-02T09:51:43.648Z,2460
2016-04-02T09:52:43.370Z,2492
2016-04-02T09:53:43.358Z,2512
2016-04-02T09:54:43.281Z,2508
2016-04-02T09:55:43.238Z,2520
2016-04-02T09:56:43.225Z,2528
2016-04-02T09:57:43.619Z,2552
2016-04-02T09:58:43.247Z,2560
2016-04-02T09:59:43.170Z,2572
2016-04-02T10:00:43.205Z,2584
2016-04-02T10:01:43.425Z,2580
2016-04-02T10:02:43.147Z,2588
2016-04-02T10:03:43.369Z,2592
2016-04-02T10:04:43.184Z,2588
2016-04-02T10:05:43.047Z,2604
2016-04-02T10:06:43.314Z,2608
2016-04-02T10:07:43.146Z,2608
2016-04-02T10:08:43.038Z,2604
2016-04-02T10:09:46.729Z,2604
2016-04-02T10:10:42.903Z,2620
2016-04-02T10:11:42.906Z,2628
2016-04-02T10:12:43.143Z,2636
2016-04-02T10:13:43.162Z,2632
2016-04-02T10:14:42.868Z,2652
2016-04-02T10:15:42.307Z,2668
2016-04-02T10:16:42.810Z,2692
2016-04-02T10:17:43.125Z,2716
2016-04-02T10:18:43.175Z,2720
2016-04-02T10:19:42.786Z,2720
2016-04-02T10:20:43.258Z,2736
2016-04-02T10:21:43.167Z,2748
2016-04-02T10:22:42.764Z,2768
2016-04-02T10:23:42.657Z,2808
2016-04-02T10:24:42.878Z,2852
2016-04-02T10:25:42.740Z,2880
2016-04-02T10:26:42.836Z,2908
2016-04-02T10:27:42.964Z,2984
2016-04-02T10:28:42.545Z,3052
2016-04-02T10:29:42.486Z,3168
2016-04-02T10:30:42.911Z,3264
2016-04-02T10:31:42.522Z,3328
2016-04-02T10:32:42.588Z,3364
2016-04-02T10:33:42.793Z,3448
2016-04-02T10:34:42.389Z,3540
2016-04-02T10:35:42.407Z,3648
2016-04-02T10:36:41.566Z,3728
2016-04-02T10:37:42.272Z,3676
2016-04-02T10:38:41.463Z,3540
2016-04-02T10:39:56.966Z,3540
2016-04-02T10:40:42.687Z,3420
2016-04-02T10:41:42.487Z,3124
2016-04-02T10:42:42.208Z,3048
2016-04-02T10:43:56.007Z,3020
2016-04-02T10:44:42.135Z,3016
2016-04-02T10:45:42.606Z,3016
2016-04-02T10:46:42.109Z,3020
2016-04-02T10:47:42.143Z,3028
2016-04-02T10:48:42.021Z,3040
2016-04-02T10:49:42.055Z,3060
2016-04-02T10:51:42.435Z,3096
2016-04-02T10:52:41.969Z,3144
2016-04-02T10:53:41.941Z,3216
2016-04-02T10:54:41.881Z,3004
2016-04-02T10:55:41.868Z,3208
2016-04-02T10:56:41.715Z,3244
2016-04-02T10:57:42.420Z,3260
2016-04-02T10:58:41.861Z,3284
2016-04-02T10:59:42.050Z,3300
2016-04-02T11:00:42.022Z,3304
2016-04-02T11:01:41.805Z,3356
2016-04-02T11:02:41.798Z,3384
2016-04-02T11:03:42.070Z,3424
2016-04-02T11:04:41.734Z,3440
2016-04-02T11:05:42.258Z,3472
2016-04-02T11:06:41.624Z,3520
2016-04-02T11:07:41.590Z,3580
2016-04-02T11:08:41.558Z,3596
2016-04-02T11:09:42.962Z,3604
2016-04-02T11:10:41.851Z,3620
2016-04-02T11:11:42.006Z,3632
2016-04-02T11:12:41.492Z,3628
2016-04-02T11:13:41.399Z,3620
2016-04-02T11:14:41.384Z,3628
2016-04-02T11:15:41.651Z,3648
2016-04-02T11:16:41.324Z,3648
2016-04-02T11:18:41.314Z,3744
2016-04-02T11:19:55.113Z,3832
2016-04-02T11:20:41.381Z,3880
2016-04-02T11:21:41.523Z,3916
2016-04-02T11:22:41.417Z,3964
2016-04-02T11:23:41.232Z,4020
2016-04-02T11:24:41.173Z,4072
2016-04-02T11:25:41.223Z,4156
2016-04-02T11:26:41.303Z,4240
2016-04-02T11:27:41.415Z,4304
2016-04-02T11:28:41.105Z,4412
2016-04-02T11:29:41.155Z,4504
2016-04-02T11:30:41.142Z,4448
2016-04-02T11:31:41.347Z,4668
2016-04-02T11:32:41.100Z,4776
2016-04-02T11:33:41.525Z,4848
2016-04-02T11:34:41.215Z,4876
2016-04-02T11:35:40.984Z,4848
2016-04-02T11:36:43.955Z,4756
2016-04-02T11:37:41.067Z,4516
2016-04-02T11:38:41.460Z,4236
2016-04-02T11:39:41.666Z,4172
2016-04-02T11:40:42.262Z,4304
2016-04-02T11:41:44.108Z,4636
2016-04-02T11:42:41.486Z,5348
2016-04-02T11:43:40.785Z,11844
2016-04-02T11:44:40.867Z,10148
2016-04-02T11:45:41.088Z,7552
2016-04-02T11:46:40.904Z,5992
2016-04-02T11:47:40.812Z,6180
2016-04-02T11:48:40.643Z,6504
2016-04-02T11:49:41.115Z,10028
2016-04-02T11:50:40.712Z,8844
2016-04-02T11:51:41.433Z,8704
2016-04-02T11:52:44.498Z,6708
2016-04-02T11:53:41.735Z,7012
2016-04-02T11:54:41.018Z,7580
2016-04-02T11:55:41.240Z,7248
2016-04-02T11:56:42.383Z,6376
2016-04-02T11:57:43.292Z,8148
2016-04-02T11:58:42.654Z,6576
2016-04-02T11:59:43.953Z,6888
2016-04-02T12:00:42.082Z,5760
2016-04-02T12:01:57.772Z,5592
2016-04-02T12:02:45.837Z,5712
2016-04-02T12:03:41.199Z,5824
2016-04-02T12:04:41.108Z,5868
2016-04-02T12:05:41.236Z,6072
2016-04-02T12:06:44.832Z,6204
2016-04-02T12:07:40.585Z,6448
2016-04-02T12:08:41.571Z,6708
2016-04-02T12:09:41.512Z,7728
2016-04-02T12:10:40.311Z,7864
2016-04-02T12:11:54.127Z,12192
2016-04-02T12:12:43.786Z,13240
2016-04-02T12:13:42.413Z,11808
2016-04-02T12:14:41.229Z,9980
2016-04-02T12:15:41.200Z,8548
2016-04-02T12:16:44.359Z,7428
2016-04-02T12:17:40.769Z,6940
2016-04-02T12:18:41.177Z,6776
2016-04-02T12:19:41.399Z,6656
2016-04-02T12:20:42.385Z,6652
2016-04-02T12:21:44.951Z,6440
2016-04-02T12:22:41.719Z,6156
2016-04-02T12:23:41.518Z,5896
2016-04-02T12:24:39.881Z,5748
2016-04-02T12:25:40.633Z,5624
2016-04-02T12:26:40.230Z,5596
2016-04-02T12:27:40.404Z,5592
2016-04-02T12:28:40.126Z,5644
2016-04-02T12:29:40.223Z,5800
2016-04-02T12:31:39.947Z,6680
2016-04-02T12:32:39.933Z,7292
2016-04-02T12:33:40.233Z,8256
2016-04-02T12:34:39.188Z,10388
2016-04-02T12:35:40.019Z,9960
2016-04-02T12:36:40.053Z,8696
2016-04-02T12:37:39.775Z,7640
2016-04-02T12:38:39.950Z,7740
2016-04-02T12:39:40.139Z,8228
2016-04-02T12:40:39.799Z,8920
2016-04-02T12:41:39.660Z,9368
2016-04-02T12:42:39.539Z,8764
2016-04-02T12:43:39.713Z,9020
2016-04-02T12:44:39.575Z,8784
2016-04-02T12:45:39.860Z,9492
2016-04-02T12:46:40.424Z,14344
2016-04-02T12:47:39.380Z,16448
2016-04-02T12:48:39.430Z,12424
2016-04-02T12:49:39.448Z,11608
2016-04-02T12:50:40.060Z,10768
2016-04-02T12:51:41.046Z,10332
2016-04-02T12:52:39.613Z,11556
2016-04-02T12:53:39.506Z,11836
2016-04-02T12:54:39.305Z,11352
2016-04-02T12:55:39.590Z,11108
2016-04-02T12:56:39.310Z,11080
2016-04-02T12:57:39.829Z,12808
2016-04-02T12:58:39.362Z,16704
2016-04-02T12:59:39.678Z,17408
2016-04-02T13:01:39.542Z,11000
2016-04-02T13:02:39.123Z,10572
2016-04-02T13:03:39.626Z,10868
2016-04-02T13:04:39.223Z,12336
2016-04-02T13:05:39.084Z,13288
2016-04-02T13:06:39.087Z,12468
2016-04-02T13:07:39.136Z,10076
2016-04-02T13:08:39.124Z,9736
2016-04-02T13:09:39.720Z,9804
2016-04-02T13:10:39.270Z,10148
2016-04-02T13:11:38.976Z,10052
2016-04-02T13:12:38.463Z,10300
2016-04-02T13:13:38.981Z,10916
2016-04-02T13:14:38.187Z,11164
2016-04-02T13:15:39.346Z,11540
2016-04-02T13:16:38.848Z,11452
2016-04-02T13:17:38.866Z,12344
2016-04-02T13:18:38.885Z,12316
2016-04-02T13:19:38.107Z,10996
2016-04-02T13:20:38.344Z,9872
2016-04-02T13:21:39.174Z,10472
2016-04-02T13:22:39.052Z,11196
2016-04-02T13:23:38.711Z,11036
2016-04-02T13:24:38.807Z,10704
2016-04-02T13:25:38.684Z,11876
2016-04-02T13:26:39.437Z,11936
2016-04-02T13:27:38.956Z,11608
2016-04-02T13:28:38.803Z,10248
2016-04-02T13:29:38.634Z,8972
2016-04-02T13:30:38.590Z,8620
2016-04-02T13:31:38.108Z,8616
2016-04-02T13:32:38.751Z,8664
2016-04-02T13:33:38.925Z,9452
2016-04-02T13:34:38.600Z,10428
2016-04-02T13:35:38.822Z,10732
2016-04-02T13:36:38.559Z,13524
2016-04-02T13:37:38.453Z,12708
2016-04-02T13:38:39.017Z,12752
2016-04-02T13:39:38.755Z,11920
2016-04-02T13:40:38.491Z,11012
2016-04-02T13:41:38.416Z,11260
2016-04-02T13:42:38.387Z,11744
2016-04-02T13:43:38.311Z,12020
2016-04-02T13:44:38.393Z,14552
2016-04-02T13:45:37.786Z,16096
2016-04-02T13:46:38.383Z,15872
2016-04-02T13:47:38.369Z,16704
2016-04-02T13:48:38.263Z,14876
2016-04-02T13:49:38.484Z,14568
2016-04-02T13:50:38.205Z,16544
2016-04-02T13:52:38.257Z,16288
2016-04-02T13:53:38.229Z,20384
2016-04-02T13:54:38.732Z,19936
2016-04-02T13:55:38.126Z,12680
2016-04-02T13:56:38.659Z,11956